createdAt,value
2022-11-27T00:00:11.908Z,363
2022-11-27T00:01:11.471Z,375
2022-11-27T00:02:11.794Z,392
2022-11-27T00:03:12.097Z,379
2022-11-27T00:04:11.473Z,376
2022-11-27T00:05:11.625Z,368
2022-11-27T00:06:11.564Z,373
2022-11-27T00:07:11.965Z,375
2022-11-27T00:08:11.329Z,381
2022-11-27T00:09:11.040Z,379
2022-11-27T00:10:12.729Z,377
2022-11-27T00:11:11.691Z,362
2022-11-27T00:12:11.802Z,359
2022-11-27T00:13:11.768Z,363
2022-11-27T00:14:11.946Z,376
2022-11-27T00:15:16.976Z,379
2022-11-27T00:16:11.266Z,373
2022-11-27T00:17:12.130Z,368
2022-11-27T00:19:11.418Z,374
2022-11-27T00:20:11.888Z,365
2022-11-27T00:22:12.334Z,359
2022-11-27T00:23:11.590Z,358
2022-11-27T00:24:11.800Z,369
2022-11-27T00:25:12.090Z,363
2022-11-27T00:26:12.251Z,359
2022-11-27T00:27:12.322Z,366
2022-11-27T00:28:11.640Z,357
2022-11-27T00:29:11.930Z,354
2022-11-27T00:30:12.464Z,361
2022-11-27T00:31:11.819Z,360
2022-11-27T00:32:11.817Z,363
2022-11-27T00:33:12.005Z,354
2022-11-27T00:34:11.357Z,363
2022-11-27T00:35:12.007Z,371
2022-11-27T00:36:12.272Z,370
2022-11-27T00:37:12.450Z,364
2022-11-27T00:38:12.368Z,370
2022-11-27T00:39:12.017Z,372
2022-11-27T00:40:11.756Z,370
2022-11-27T00:41:11.954Z,344
2022-11-27T00:42:12.151Z,356
2022-11-27T00:43:11.259Z,364
2022-11-27T00:44:11.439Z,362
2022-11-27T00:45:12.082Z,357
2022-11-27T00:46:11.313Z,350
2022-11-27T00:47:12.144Z,362
2022-11-27T00:48:11.670Z,352
2022-11-27T00:49:12.366Z,353
2022-11-27T00:50:12.055Z,352
2022-11-27T00:51:12.657Z,354
2022-11-27T00:52:17.264Z,362
2022-11-27T00:53:11.683Z,371
2022-11-27T00:54:17.069Z,367
2022-11-27T00:55:12.688Z,366
2022-11-27T00:56:12.484Z,357
2022-11-27T00:57:11.990Z,359
2022-11-27T00:58:11.751Z,364
2022-11-27T01:00:13.769Z,362
2022-11-27T01:01:13.825Z,358
2022-11-27T01:02:12.275Z,348
2022-11-27T01:03:12.007Z,374
2022-11-27T01:04:11.652Z,353
2022-11-27T01:05:12.173Z,368
2022-11-27T01:06:11.571Z,373
2022-11-27T01:07:12.047Z,370
2022-11-27T01:08:11.746Z,372
2022-11-27T01:10:11.895Z,374
2022-11-27T01:11:11.602Z,369
2022-11-27T01:12:26.316Z,373
2022-11-27T01:13:11.792Z,375
2022-11-27T01:14:11.426Z,370
2022-11-27T01:15:12.343Z,377
2022-11-27T01:16:12.524Z,379
2022-11-27T01:17:12.362Z,373
2022-11-27T01:18:11.383Z,375
2022-11-27T01:19:11.591Z,376
2022-11-27T01:20:12.662Z,368
2022-11-27T01:21:11.268Z,376
2022-11-27T01:23:12.058Z,364
2022-11-27T01:24:11.488Z,367
2022-11-27T01:25:11.850Z,375
2022-11-27T01:26:11.068Z,347
2022-11-27T01:27:12.154Z,356
2022-11-27T01:28:11.222Z,364
2022-11-27T01:29:12.439Z,365
2022-11-27T01:30:12.045Z,370
2022-11-27T01:31:11.244Z,372
2022-11-27T01:32:11.666Z,367
2022-11-27T01:33:11.683Z,372
2022-11-27T01:34:12.114Z,368
2022-11-27T01:36:11.462Z,373
2022-11-27T01:37:12.018Z,364
2022-11-27T01:38:11.103Z,359
2022-11-27T01:39:12.012Z,355
2022-11-27T01:40:11.798Z,365
2022-11-27T01:41:11.733Z,367
2022-11-27T01:42:12.119Z,371
2022-11-27T01:44:11.530Z,363
2022-11-27T01:45:11.605Z,364
2022-11-27T01:46:12.019Z,346
2022-11-27T01:47:12.139Z,377
2022-11-27T01:48:11.314Z,380
2022-11-27T01:49:12.266Z,366
2022-11-27T01:50:11.663Z,369
2022-11-27T01:51:11.618Z,374
2022-11-27T01:52:11.731Z,372
2022-11-27T01:53:12.079Z,367
2022-11-27T01:54:12.160Z,373
2022-11-27T01:55:11.507Z,360
2022-11-27T01:56:11.801Z,365
2022-11-27T01:57:11.797Z,370
2022-11-27T01:58:12.123Z,376
2022-11-27T01:59:12.323Z,377
2022-11-27T02:00:12.397Z,370
2022-11-27T02:01:12.136Z,374
2022-11-27T02:02:11.524Z,362
2022-11-27T02:03:12.294Z,365
2022-11-27T02:04:11.583Z,376
2022-11-27T02:05:12.086Z,380
2022-11-27T02:06:11.344Z,381
2022-11-27T02:07:12.251Z,382
2022-11-27T02:08:11.538Z,375
2022-11-27T02:09:11.552Z,379
2022-11-27T02:10:11.607Z,350
2022-11-27T02:11:11.550Z,362
2022-11-27T02:12:11.765Z,368
2022-11-27T02:13:11.982Z,367
2022-11-27T02:14:12.167Z,369
2022-11-27T02:15:11.795Z,371
2022-11-27T02:16:16.434Z,375
2022-11-27T02:17:12.121Z,378
2022-11-27T02:18:11.269Z,374
2022-11-27T02:19:12.048Z,371
2022-11-27T02:20:12.351Z,366
2022-11-27T02:22:11.386Z,375
2022-11-27T02:24:12.189Z,373
2022-11-27T02:25:11.320Z,369
2022-11-27T02:26:11.742Z,372
2022-11-27T02:27:11.767Z,368
2022-11-27T02:28:11.817Z,374
2022-11-27T02:29:12.029Z,371
2022-11-27T02:30:12.509Z,380
2022-11-27T02:31:11.931Z,364
2022-11-27T02:32:11.226Z,385
2022-11-27T02:33:12.195Z,378
2022-11-27T02:35:12.493Z,371
2022-11-27T02:36:11.632Z,379
2022-11-27T02:37:11.541Z,386
2022-11-27T02:38:11.510Z,375
2022-11-27T02:39:11.019Z,362
2022-11-27T02:40:12.228Z,365
2022-11-27T02:42:11.650Z,368
2022-11-27T02:43:11.513Z,377
2022-11-27T02:44:11.489Z,370
2022-11-27T02:45:11.367Z,375
2022-11-27T02:46:11.772Z,383
2022-11-27T02:47:11.821Z,386
2022-11-27T02:48:12.072Z,392
2022-11-27T02:49:11.565Z,379
2022-11-27T02:50:11.763Z,373
2022-11-27T02:51:11.910Z,380
2022-11-27T02:52:12.164Z,378
2022-11-27T02:53:12.046Z,377
2022-11-27T02:54:12.039Z,398
2022-11-27T02:55:12.050Z,370
2022-11-27T02:56:12.143Z,367
2022-11-27T02:57:12.061Z,371
2022-11-27T02:58:12.172Z,375
2022-11-27T02:59:12.229Z,384
2022-11-27T03:00:11.735Z,376
2022-11-27T03:01:12.232Z,372
2022-11-27T03:02:11.662Z,373
2022-11-27T03:03:11.698Z,372
2022-11-27T03:04:12.018Z,373
2022-11-27T03:05:12.170Z,381
2022-11-27T03:06:12.348Z,380
2022-11-27T03:07:11.407Z,365
2022-11-27T03:08:11.430Z,363
2022-11-27T03:09:11.442Z,366
2022-11-27T03:10:12.614Z,374
2022-11-27T03:11:11.847Z,377
2022-11-27T03:12:11.739Z,371
2022-11-27T03:13:11.358Z,373
2022-11-27T03:14:11.166Z,387
2022-11-27T03:15:12.516Z,371
2022-11-27T03:16:11.740Z,382
2022-11-27T03:17:11.763Z,363
2022-11-27T03:18:11.776Z,368
2022-11-27T03:19:11.771Z,369
2022-11-27T03:20:11.719Z,385
2022-11-27T03:21:11.565Z,379
2022-11-27T03:22:11.598Z,383
2022-11-27T03:23:11.643Z,376
2022-11-27T03:24:11.704Z,381
2022-11-27T03:25:11.810Z,389
2022-11-27T03:26:11.664Z,390
2022-11-27T03:27:19.772Z,386
2022-11-27T03:28:11.772Z,379
2022-11-27T03:29:11.734Z,374
2022-11-27T03:30:12.400Z,375
2022-11-27T03:31:11.554Z,376
2022-11-27T03:32:11.653Z,384
2022-11-27T03:33:11.658Z,396
2022-11-27T03:34:11.684Z,391
2022-11-27T03:35:11.569Z,379
2022-11-27T03:36:11.731Z,387
2022-11-27T03:37:11.998Z,383
2022-11-27T03:38:11.935Z,384
2022-11-27T03:39:12.002Z,381
2022-11-27T03:40:12.458Z,379
2022-11-27T03:41:12.101Z,388
2022-11-27T03:42:12.202Z,379
2022-11-27T03:43:12.349Z,374
2022-11-27T03:44:11.419Z,379
2022-11-27T03:45:11.695Z,384
2022-11-27T03:46:12.018Z,394
2022-11-27T03:47:12.278Z,386
2022-11-27T03:48:11.458Z,387
2022-11-27T03:49:11.421Z,385
2022-11-27T03:50:11.168Z,378
2022-11-27T03:51:12.046Z,372
2022-11-27T03:52:12.017Z,379
2022-11-27T03:53:11.924Z,386
2022-11-27T03:54:11.714Z,390
2022-11-27T03:56:11.762Z,382
2022-11-27T03:57:11.586Z,389
2022-11-27T03:58:11.477Z,392
2022-11-27T03:59:12.204Z,383
2022-11-27T04:00:11.889Z,397
2022-11-27T04:01:31.431Z,383
2022-11-27T04:02:11.585Z,394
2022-11-27T04:03:11.702Z,387
2022-11-27T04:04:11.998Z,383
2022-11-27T04:05:12.569Z,384
2022-11-27T04:06:11.935Z,380
2022-11-27T04:07:12.005Z,385
2022-11-27T04:08:12.244Z,390
2022-11-27T04:09:11.346Z,386
2022-11-27T04:10:11.699Z,380
2022-11-27T04:11:11.687Z,383
2022-11-27T04:12:11.636Z,384
2022-11-27T04:13:11.397Z,392
2022-11-27T04:14:11.519Z,407
2022-11-27T04:15:11.658Z,390
2022-11-27T04:16:11.523Z,381
2022-11-27T04:17:11.454Z,384
2022-11-27T04:18:11.559Z,379
2022-11-27T04:19:11.501Z,373
2022-11-27T04:20:12.021Z,375
2022-11-27T04:21:11.808Z,381
2022-11-27T04:22:11.940Z,375
2022-11-27T04:23:11.984Z,378
2022-11-27T04:24:12.093Z,379
2022-11-27T04:25:12.307Z,372
2022-11-27T04:26:11.447Z,362
2022-11-27T04:27:11.603Z,356
2022-11-27T04:28:11.669Z,357
2022-11-27T04:29:11.452Z,369
2022-11-27T04:30:11.812Z,368
2022-11-27T04:31:11.966Z,364
2022-11-27T04:32:12.256Z,373
2022-11-27T04:33:12.158Z,374
2022-11-27T04:34:11.362Z,372
2022-11-27T04:35:11.455Z,366
2022-11-27T04:36:11.561Z,363
2022-11-27T04:38:12.023Z,377
2022-11-27T04:39:12.119Z,373
2022-11-27T04:40:12.391Z,368
2022-11-27T04:41:11.043Z,378
2022-11-27T04:42:12.153Z,376
2022-11-27T04:43:11.738Z,375
2022-11-27T04:44:11.912Z,370
2022-11-27T04:45:11.764Z,358
2022-11-27T04:46:11.739Z,387
2022-11-27T04:47:11.613Z,382
2022-11-27T04:49:11.474Z,381
2022-11-27T04:50:11.956Z,377
2022-11-27T04:51:11.802Z,374
2022-11-27T04:52:11.697Z,375
2022-11-27T04:53:11.666Z,369
2022-11-27T04:54:11.873Z,366
2022-11-27T04:55:12.207Z,372
2022-11-27T04:56:11.932Z,376
2022-11-27T04:57:12.156Z,372
2022-11-27T04:58:11.258Z,368
2022-11-27T05:00:11.938Z,362
2022-11-27T05:01:12.194Z,371
2022-11-27T05:02:11.496Z,385
2022-11-27T05:03:10.359Z,389
2022-11-27T05:04:11.746Z,382
2022-11-27T05:05:12.079Z,370
2022-11-27T05:06:11.789Z,361
2022-11-27T05:07:11.940Z,363
2022-11-27T05:08:11.385Z,381
2022-11-27T05:09:12.411Z,378
2022-11-27T05:10:11.875Z,372
2022-11-27T05:11:11.957Z,373
2022-11-27T05:12:11.843Z,370
2022-11-27T05:13:11.847Z,362
2022-11-27T05:14:12.076Z,373
2022-11-27T05:15:12.386Z,380
2022-11-27T05:16:11.716Z,375
2022-11-27T05:17:12.299Z,369
2022-11-27T05:18:11.558Z,375
2022-11-27T05:19:11.457Z,379
2022-11-27T05:20:12.285Z,384
2022-11-27T05:21:12.416Z,376
2022-11-27T05:22:11.608Z,379
2022-11-27T05:23:11.962Z,377
2022-11-27T05:24:12.222Z,378
2022-11-27T05:25:12.053Z,380
2022-11-27T05:26:12.145Z,379
2022-11-27T05:27:12.086Z,380
2022-11-27T05:28:11.491Z,373
2022-11-27T05:29:11.472Z,376
2022-11-27T05:30:12.617Z,381
2022-11-27T05:31:11.690Z,383
2022-11-27T05:32:11.680Z,379
2022-11-27T05:33:12.049Z,383
2022-11-27T05:34:11.965Z,388
2022-11-27T05:35:12.197Z,390
2022-11-27T05:36:11.507Z,383
2022-11-27T05:37:15.112Z,379
2022-11-27T05:38:12.203Z,384
2022-11-27T05:39:11.253Z,392
2022-11-27T05:41:11.574Z,380
2022-11-27T05:42:11.826Z,379
2022-11-27T05:43:11.783Z,382
2022-11-27T05:44:11.881Z,385
2022-11-27T05:45:12.459Z,380
2022-11-27T05:46:11.767Z,384
2022-11-27T05:47:12.288Z,388
2022-11-27T05:48:11.708Z,389
2022-11-27T05:49:11.705Z,385
2022-11-27T05:50:12.088Z,398
2022-11-27T05:51:11.822Z,394
2022-11-27T05:52:11.645Z,385
2022-11-27T05:53:11.381Z,378
2022-11-27T05:54:11.648Z,386
2022-11-27T05:55:11.674Z,390
2022-11-27T05:56:11.715Z,378
2022-11-27T05:57:11.582Z,373
2022-11-27T05:58:11.607Z,380
2022-11-27T05:59:11.863Z,379
2022-11-27T06:00:12.389Z,385
2022-11-27T06:01:11.596Z,378
2022-11-27T06:02:16.465Z,376
2022-11-27T06:03:12.000Z,386
2022-11-27T06:04:11.365Z,384
2022-11-27T06:05:11.599Z,373
2022-11-27T06:06:12.010Z,371
2022-11-27T06:07:12.034Z,378
2022-11-27T06:08:11.378Z,368
2022-11-27T06:09:13.064Z,371
2022-11-27T06:10:11.557Z,376
2022-11-27T06:12:11.794Z,363
2022-11-27T06:13:11.300Z,399
2022-11-27T06:14:11.529Z,392
2022-11-27T06:15:11.808Z,376
2022-11-27T06:16:12.182Z,368
2022-11-27T06:17:12.049Z,366
2022-11-27T06:18:12.014Z,357
2022-11-27T06:19:12.002Z,365
2022-11-27T06:20:12.392Z,366
2022-11-27T06:21:11.558Z,371
2022-11-27T06:22:11.670Z,369
2022-11-27T06:23:11.709Z,392
2022-11-27T06:24:11.677Z,393
2022-11-27T06:25:11.483Z,386
2022-11-27T06:26:11.911Z,389
2022-11-27T06:27:11.518Z,382
2022-11-27T06:28:11.737Z,387
2022-11-27T06:29:11.722Z,391
2022-11-27T06:30:12.188Z,392
2022-11-27T06:31:17.256Z,385
2022-11-27T06:33:11.522Z,378
2022-11-27T06:34:11.742Z,387
2022-11-27T06:35:11.613Z,363
2022-11-27T06:36:11.438Z,369
2022-11-27T06:37:13.399Z,386
2022-11-27T06:38:11.778Z,390
2022-11-27T06:39:11.791Z,381
2022-11-27T06:40:11.808Z,379
2022-11-27T06:41:12.101Z,378
2022-11-27T06:42:11.759Z,382
2022-11-27T06:45:12.207Z,379
2022-11-27T06:46:12.027Z,384
2022-11-27T06:47:12.400Z,381
2022-11-27T06:48:11.767Z,377
2022-11-27T06:49:11.667Z,375
2022-11-27T06:50:12.108Z,378
2022-11-27T06:51:12.070Z,374
2022-11-27T06:52:12.143Z,370
2022-11-27T06:54:12.255Z,378
2022-11-27T06:55:12.597Z,374
2022-11-27T06:56:11.633Z,361
2022-11-27T06:57:11.468Z,404
2022-11-27T06:58:12.045Z,384
2022-11-27T06:59:11.827Z,374
2022-11-27T07:01:11.911Z,370
2022-11-27T07:02:12.520Z,371
2022-11-27T07:03:11.739Z,388
2022-11-27T07:04:11.907Z,377
2022-11-27T07:05:12.240Z,369
2022-11-27T07:06:11.268Z,375
2022-11-27T07:07:12.517Z,376
2022-11-27T07:08:11.627Z,380
2022-11-27T07:09:12.122Z,388
2022-11-27T07:10:12.349Z,383
2022-11-27T07:11:11.501Z,382
2022-11-27T07:13:11.944Z,384
2022-11-27T07:14:12.302Z,385
2022-11-27T07:15:12.342Z,390
2022-11-27T07:16:11.814Z,391
2022-11-27T07:17:12.301Z,386
2022-11-27T07:18:11.801Z,389
2022-11-27T07:19:11.661Z,383
2022-11-27T07:20:11.809Z,385
2022-11-27T07:21:11.899Z,394
2022-11-27T07:22:11.972Z,390
2022-11-27T07:24:12.322Z,389
2022-11-27T07:26:11.839Z,393
2022-11-27T07:27:11.804Z,388
2022-11-27T07:28:15.984Z,384
2022-11-27T07:29:11.965Z,386
2022-11-27T07:30:12.531Z,391
2022-11-27T07:31:11.549Z,392
2022-11-27T07:32:11.897Z,386
2022-11-27T07:33:12.044Z,374
2022-11-27T07:34:17.082Z,372
2022-11-27T07:35:12.404Z,379
2022-11-27T07:36:11.280Z,389
2022-11-27T07:37:11.701Z,391
2022-11-27T07:39:11.538Z,379
2022-11-27T07:40:13.860Z,368
2022-11-27T07:41:12.373Z,383
2022-11-27T07:42:36.880Z,378
2022-11-27T07:43:12.172Z,372
2022-11-27T07:44:11.925Z,374
2022-11-27T07:45:12.103Z,370
2022-11-27T07:46:12.231Z,372
2022-11-27T07:47:11.928Z,370
2022-11-27T07:48:12.376Z,373
2022-11-27T07:49:12.552Z,378
2022-11-27T07:50:11.863Z,370
2022-11-27T07:51:12.326Z,364
2022-11-27T07:52:11.726Z,356
2022-11-27T07:53:11.723Z,360
2022-11-27T07:54:11.934Z,357
2022-11-27T07:55:12.259Z,367
2022-11-27T07:56:11.491Z,370
2022-11-27T07:57:11.882Z,368
2022-11-27T07:58:12.252Z,375
2022-11-27T07:59:11.378Z,374
2022-11-27T08:00:12.254Z,366
2022-11-27T08:01:11.998Z,367
2022-11-27T08:02:12.496Z,383
2022-11-27T08:03:11.479Z,352
2022-11-27T08:04:11.854Z,365
2022-11-27T08:05:13.200Z,377
2022-11-27T08:07:11.501Z,371
2022-11-27T08:08:11.741Z,373
2022-11-27T08:09:11.752Z,372
2022-11-27T08:11:12.238Z,377
2022-11-27T08:13:11.990Z,371
2022-11-27T08:14:12.258Z,378
2022-11-27T08:15:12.858Z,382
2022-11-27T08:17:12.248Z,379
2022-11-27T08:18:11.254Z,367
2022-11-27T08:19:12.183Z,363
2022-11-27T08:20:11.477Z,352
2022-11-27T08:21:11.468Z,355
2022-11-27T08:22:11.883Z,362
2022-11-27T08:23:12.135Z,350
2022-11-27T08:24:11.859Z,383
2022-11-27T08:25:11.583Z,369
2022-11-27T08:26:11.832Z,361
2022-11-27T08:27:12.018Z,366
2022-11-27T08:28:10.899Z,364
2022-11-27T08:29:11.518Z,362
2022-11-27T08:30:12.095Z,361
2022-11-27T08:31:12.026Z,360
2022-11-27T08:32:12.460Z,358
2022-11-27T08:33:11.855Z,363
2022-11-27T08:34:11.712Z,370
2022-11-27T08:35:12.180Z,376
2022-11-27T08:36:17.673Z,375
2022-11-27T08:37:11.531Z,372
2022-11-27T08:38:11.764Z,374
2022-11-27T08:39:11.845Z,370
2022-11-27T08:40:12.101Z,374
2022-11-27T08:41:12.162Z,376
2022-11-27T08:42:12.013Z,374
2022-11-27T08:43:12.277Z,370
2022-11-27T08:45:31.313Z,365
2022-11-27T08:46:11.703Z,373
2022-11-27T08:47:12.029Z,376
2022-11-27T08:48:12.434Z,371
2022-11-27T08:49:11.844Z,379
2022-11-27T08:50:11.735Z,370
2022-11-27T08:51:12.223Z,367
2022-11-27T08:52:11.460Z,371
2022-11-27T08:53:11.696Z,363
2022-11-27T08:54:12.080Z,365
2022-11-27T08:55:34.454Z,370
2022-11-27T08:56:11.632Z,369
2022-11-27T08:57:11.482Z,365
2022-11-27T08:58:11.771Z,359
2022-11-27T08:59:12.248Z,357
2022-11-27T09:00:12.191Z,363
2022-11-27T09:01:11.687Z,373
2022-11-27T09:03:11.996Z,368
2022-11-27T09:05:12.231Z,353
2022-11-27T09:06:11.294Z,384
2022-11-27T09:07:11.499Z,361
2022-11-27T09:08:11.596Z,374
2022-11-27T09:09:12.214Z,376
2022-11-27T09:10:11.815Z,368
2022-11-27T09:11:12.434Z,372
2022-11-27T09:12:11.744Z,366
2022-11-27T09:13:11.978Z,372
2022-11-27T09:14:12.272Z,371
2022-11-27T09:15:11.065Z,370
2022-11-27T09:16:11.565Z,363
2022-11-27T09:17:12.289Z,361
2022-11-27T09:18:11.698Z,373
2022-11-27T09:19:11.997Z,374
2022-11-27T09:20:12.601Z,366
2022-11-27T09:21:11.670Z,358
2022-11-27T09:22:11.889Z,356
2022-11-27T09:23:14.468Z,370
2022-11-27T09:24:11.964Z,373
2022-11-27T09:25:12.494Z,360
2022-11-27T09:26:11.754Z,356
2022-11-27T09:27:12.162Z,361
2022-11-27T09:28:11.479Z,357
2022-11-27T09:30:11.681Z,363
2022-11-27T09:31:11.653Z,366
2022-11-27T09:32:12.006Z,367
2022-11-27T09:33:11.586Z,370
2022-11-27T09:34:11.674Z,378
2022-11-27T09:35:12.135Z,380
2022-11-27T09:36:11.765Z,375
2022-11-27T09:37:11.888Z,367
2022-11-27T09:38:12.140Z,370
2022-11-27T09:39:11.445Z,371
2022-11-27T09:40:11.915Z,366
2022-11-27T09:41:12.343Z,363
2022-11-27T09:42:11.507Z,370
2022-11-27T09:43:11.713Z,374
2022-11-27T09:44:12.077Z,378
2022-11-27T09:45:12.098Z,374
2022-11-27T09:46:11.447Z,373
2022-11-27T09:47:11.383Z,369
2022-11-27T09:48:11.604Z,357
2022-11-27T09:49:11.855Z,363
2022-11-27T09:50:12.123Z,368
2022-11-27T09:51:12.224Z,367
2022-11-27T09:52:11.607Z,365
2022-11-27T09:53:11.748Z,362
2022-11-27T09:55:12.642Z,364
2022-11-27T09:56:12.067Z,371
2022-11-27T09:57:11.929Z,373
2022-11-27T09:58:12.156Z,371
2022-11-27T09:59:12.155Z,377
2022-11-27T10:00:12.567Z,370
2022-11-27T10:01:12.239Z,364
2022-11-27T10:02:11.728Z,366
2022-11-27T10:03:12.575Z,376
2022-11-27T10:04:11.971Z,371
2022-11-27T10:05:14.264Z,368
2022-11-27T10:06:11.943Z,358
2022-11-27T10:07:12.272Z,356
2022-11-27T10:08:11.862Z,371
2022-11-27T10:09:12.226Z,345
2022-11-27T10:10:11.807Z,352
2022-11-27T10:11:12.225Z,358
2022-11-27T10:12:11.527Z,359
2022-11-27T10:13:11.710Z,369
2022-11-27T10:14:12.226Z,367
2022-11-27T10:15:12.586Z,365
2022-11-27T10:16:11.664Z,367
2022-11-27T10:17:12.165Z,366
2022-11-27T10:18:11.274Z,376
2022-11-27T10:19:12.238Z,377
2022-11-27T10:20:12.677Z,356
2022-11-27T10:21:12.272Z,355
2022-11-27T10:22:13.379Z,354
2022-11-27T10:23:11.677Z,365
2022-11-27T10:24:12.045Z,372
2022-11-27T10:26:11.925Z,363
2022-11-27T10:27:12.558Z,356
2022-11-27T10:28:11.933Z,377
2022-11-27T10:29:12.379Z,348
2022-11-27T10:30:12.329Z,350
2022-11-27T10:31:11.730Z,356
2022-11-27T10:32:32.821Z,368
2022-11-27T10:33:11.859Z,366
2022-11-27T10:34:12.233Z,363
2022-11-27T10:35:11.663Z,361
2022-11-27T10:36:11.831Z,370
2022-11-27T10:37:12.440Z,365
2022-11-27T10:38:17.054Z,358
2022-11-27T10:39:11.884Z,370
2022-11-27T10:40:12.535Z,365
2022-11-27T10:41:34.320Z,374
2022-11-27T10:42:12.140Z,385
2022-11-27T10:44:11.709Z,394
2022-11-27T10:45:12.029Z,396
2022-11-27T10:46:12.238Z,384
2022-11-27T10:47:12.049Z,379
2022-11-27T10:48:12.392Z,373
2022-11-27T10:49:12.659Z,414
2022-11-27T10:50:11.958Z,377
2022-11-27T10:51:12.109Z,367
2022-11-27T10:52:12.251Z,370
2022-11-27T10:53:11.454Z,369
2022-11-27T10:54:12.029Z,362
2022-11-27T10:55:12.456Z,377
2022-11-27T10:56:11.550Z,378
2022-11-27T10:57:11.686Z,379
2022-11-27T10:58:11.964Z,372
2022-11-27T10:59:12.281Z,378
2022-11-27T11:00:13.073Z,372
2022-11-27T11:01:12.139Z,373
2022-11-27T11:02:11.839Z,374
2022-11-27T11:03:12.121Z,368
2022-11-27T11:04:24.717Z,366
2022-11-27T11:05:34.577Z,374
2022-11-27T11:06:31.060Z,362
2022-11-27T11:07:11.703Z,367
2022-11-27T11:08:12.088Z,361
2022-11-27T11:09:12.040Z,391
2022-11-27T11:10:31.601Z,353
2022-11-27T11:11:11.885Z,351
2022-11-27T11:12:12.377Z,367
2022-11-27T11:13:11.697Z,365
2022-11-27T11:14:11.613Z,362
2022-11-27T11:15:12.295Z,363
2022-11-27T11:16:14.727Z,360
2022-11-27T11:17:11.913Z,354
2022-11-27T11:18:11.384Z,363
2022-11-27T11:19:11.832Z,364
2022-11-27T11:21:11.893Z,373
2022-11-27T11:22:14.616Z,364
2022-11-27T11:23:11.870Z,361
2022-11-27T11:24:12.130Z,351
2022-11-27T11:25:11.561Z,345
2022-11-27T11:26:11.597Z,344
2022-11-27T11:27:11.819Z,361
2022-11-27T11:28:12.206Z,352
2022-11-27T11:29:11.418Z,363
2022-11-27T11:30:12.319Z,351
2022-11-27T11:31:11.797Z,360
2022-11-27T11:32:12.443Z,359
2022-11-27T11:34:11.841Z,365
2022-11-27T11:35:11.841Z,371
2022-11-27T11:36:11.763Z,366
2022-11-27T11:37:11.991Z,362
2022-11-27T11:38:11.663Z,356
2022-11-27T11:39:11.551Z,354
2022-11-27T11:40:16.030Z,355
2022-11-27T11:41:11.949Z,361
2022-11-27T11:42:12.109Z,366
2022-11-27T11:43:12.299Z,359
2022-11-27T11:44:11.520Z,352
2022-11-27T11:45:11.632Z,356
2022-11-27T11:46:11.684Z,358
2022-11-27T11:47:11.382Z,361
2022-11-27T11:48:11.897Z,370
2022-11-27T11:49:11.934Z,373
2022-11-27T11:50:12.243Z,358
2022-11-27T11:51:11.731Z,363
2022-11-27T11:52:12.143Z,356
2022-11-27T11:54:12.292Z,357
2022-11-27T11:55:12.734Z,361
2022-11-27T11:56:11.844Z,350
2022-11-27T11:57:12.103Z,348
2022-11-27T11:58:12.206Z,350
2022-11-27T11:59:12.499Z,355
2022-11-27T12:00:11.964Z,361
2022-11-27T12:01:26.324Z,372
2022-11-27T12:02:12.451Z,368
2022-11-27T12:03:11.830Z,364
2022-11-27T12:04:11.776Z,351
2022-11-27T12:05:12.518Z,353
2022-11-27T12:06:11.642Z,356
2022-11-27T12:08:12.319Z,349
2022-11-27T12:09:11.696Z,388
2022-11-27T12:10:12.086Z,359
2022-11-27T12:11:11.385Z,355
2022-11-27T12:12:11.765Z,356
2022-11-27T12:13:12.236Z,360
2022-11-27T12:14:11.333Z,367
2022-11-27T12:15:12.623Z,368
2022-11-27T12:17:11.541Z,363
2022-11-27T12:18:12.336Z,359
2022-11-27T12:19:11.601Z,367
2022-11-27T12:20:11.776Z,356
2022-11-27T12:21:12.140Z,357
2022-11-27T12:22:11.099Z,351
2022-11-27T12:23:11.204Z,361
2022-11-27T12:24:11.420Z,360
2022-11-27T12:25:11.886Z,355
2022-11-27T12:26:11.303Z,347
2022-11-27T12:27:11.633Z,371
2022-11-27T12:28:11.621Z,384
2022-11-27T12:29:11.531Z,394
2022-11-27T12:30:12.634Z,357
2022-11-27T12:31:11.995Z,360
2022-11-27T12:32:12.100Z,358
2022-11-27T12:33:12.243Z,354
2022-11-27T12:34:12.188Z,364
2022-11-27T12:35:12.349Z,367
2022-11-27T12:36:11.126Z,361
2022-11-27T12:37:14.159Z,371
2022-11-27T12:38:11.668Z,368
2022-11-27T12:40:12.204Z,375
2022-11-27T12:41:12.403Z,370
2022-11-27T12:42:11.589Z,361
2022-11-27T12:43:11.900Z,375
2022-11-27T12:44:11.940Z,366
2022-11-27T12:45:12.450Z,362
2022-11-27T12:46:11.882Z,370
2022-11-27T12:47:12.611Z,368
2022-11-27T12:48:11.561Z,374
2022-11-27T12:49:11.706Z,376
2022-11-27T12:50:12.474Z,348
2022-11-27T12:51:11.637Z,352
2022-11-27T12:52:12.026Z,357
2022-11-27T12:53:12.113Z,361
2022-11-27T12:54:11.378Z,363
2022-11-27T12:55:11.863Z,361
2022-11-27T12:56:11.426Z,356
2022-11-27T12:57:12.242Z,359
2022-11-27T12:58:11.825Z,366
2022-11-27T12:59:11.813Z,361
2022-11-27T13:00:12.806Z,358
2022-11-27T13:01:12.671Z,362
2022-11-27T13:02:12.101Z,365
2022-11-27T13:03:11.970Z,363
2022-11-27T13:04:12.157Z,369
2022-11-27T13:05:11.840Z,373
2022-11-27T13:06:12.211Z,365
2022-11-27T13:07:11.529Z,364
2022-11-27T13:08:11.960Z,361
2022-11-27T13:09:12.251Z,370
2022-11-27T13:10:11.642Z,358
2022-11-27T13:11:11.454Z,357
2022-11-27T13:12:11.716Z,354
2022-11-27T13:13:12.237Z,357
2022-11-27T13:14:11.640Z,358
2022-11-27T13:15:20.158Z,355
2022-11-27T13:16:11.637Z,347
2022-11-27T13:17:25.984Z,365
2022-11-27T13:19:12.326Z,368
2022-11-27T13:21:11.602Z,360
2022-11-27T13:22:11.806Z,359
2022-11-27T13:23:12.066Z,363
2022-11-27T13:24:11.288Z,354
2022-11-27T13:25:11.829Z,351
2022-11-27T13:26:11.769Z,357
2022-11-27T13:27:11.412Z,362
2022-11-27T13:28:12.251Z,367
2022-11-27T13:29:11.618Z,356
2022-11-27T13:30:12.338Z,363
2022-11-27T13:31:11.470Z,335
2022-11-27T13:32:12.168Z,344
2022-11-27T13:33:12.335Z,354
2022-11-27T13:34:11.661Z,358
2022-11-27T13:35:12.565Z,360
2022-11-27T13:36:11.597Z,364
2022-11-27T13:37:12.188Z,359
2022-11-27T13:38:11.709Z,365
2022-11-27T13:40:12.473Z,361
2022-11-27T13:41:11.673Z,350
2022-11-27T13:42:12.209Z,360
2022-11-27T13:43:11.534Z,369
2022-11-27T13:44:11.912Z,360
2022-11-27T13:45:12.672Z,371
2022-11-27T13:46:11.764Z,367
2022-11-27T13:47:12.134Z,369
2022-11-27T13:48:11.523Z,360
2022-11-27T13:49:11.594Z,355
2022-11-27T13:50:12.084Z,366
2022-11-27T13:51:11.616Z,379
2022-11-27T13:52:12.136Z,352
2022-11-27T13:53:11.616Z,355
2022-11-27T13:54:11.935Z,357
2022-11-27T13:55:11.986Z,359
2022-11-27T13:56:12.276Z,354
2022-11-27T13:57:11.851Z,357
2022-11-27T13:59:12.367Z,359
2022-11-27T14:00:12.595Z,371
2022-11-27T14:01:12.004Z,375
2022-11-27T14:03:11.581Z,382
2022-11-27T14:04:11.921Z,380
2022-11-27T14:05:12.498Z,376
2022-11-27T14:06:12.068Z,377
2022-11-27T14:08:11.765Z,376
2022-11-27T14:09:11.818Z,384
2022-11-27T14:10:12.263Z,386
2022-11-27T14:11:11.660Z,389
2022-11-27T14:12:12.009Z,372
2022-11-27T14:14:12.173Z,370
2022-11-27T14:15:11.816Z,373
2022-11-27T14:16:12.687Z,378
2022-11-27T14:17:12.156Z,371
2022-11-27T14:18:11.659Z,373
2022-11-27T14:19:11.826Z,362
2022-11-27T14:20:12.575Z,370
2022-11-27T14:22:12.153Z,385
2022-11-27T14:24:11.783Z,370
2022-11-27T14:25:12.481Z,378
2022-11-27T14:26:14.959Z,375
2022-11-27T14:27:11.901Z,374
2022-11-27T14:28:12.128Z,369
2022-11-27T14:29:11.832Z,375
2022-11-27T14:30:12.496Z,364
2022-11-27T14:31:12.270Z,353
2022-11-27T14:32:11.642Z,398
2022-11-27T14:33:11.560Z,363
2022-11-27T14:34:18.462Z,358
2022-11-27T14:35:12.189Z,368
2022-11-27T14:36:11.687Z,358
2022-11-27T14:37:12.305Z,361
2022-11-27T14:38:11.652Z,366